sensor_id;sensor_type;location;lat;lon;timestamp;P1;durP1;ratioP1;P2;durP2;ratioP2
53411;SDS011;39307;52.870;13.660;2023-04-15T00:00:51;49.72;;;36.90;;
53411;SDS011;39307;52.870;13.660;2023-04-15T00:03:17;51.42;;;38.00;;
53411;SDS011;39307;52.870;13.660;2023-04-15T00:05:43;51.15;;;38.08;;
53411;SDS011;39307;52.870;13.660;2023-04-15T00:08:10;50.40;;;37.23;;
53411;SDS011;39307;52.870;13.660;2023-04-15T00:10:36;50.93;;;35.73;;
53411;SDS011;39307;52.870;13.660;2023-04-15T00:13:02;48.40;;;36.20;;
53411;SDS011;39307;52.870;13.660;2023-04-15T00:15:28;47.08;;;35.05;;
53411;SDS011;39307;52.870;13.660;2023-04-15T00:17:54;47.35;;;36.08;;
53411;SDS011;39307;52.870;13.660;2023-04-15T00:20:20;48.95;;;36.47;;
53411;SDS011;39307;52.870;13.660;2023-04-15T00:22:47;48.67;;;36.30;;
53411;SDS011;39307;52.870;13.660;2023-04-15T00:25:13;48.53;;;36.03;;
53411;SDS011;39307;52.870;13.660;2023-04-15T00:27:39;46.08;;;35.15;;
53411;SDS011;39307;52.870;13.660;2023-04-15T00:30:05;47.17;;;35.83;;
53411;SDS011;39307;52.870;13.660;2023-04-15T00:32:32;45.90;;;34.83;;
53411;SDS011;39307;52.870;13.660;2023-04-15T00:34:58;48.65;;;35.40;;
53411;SDS011;39307;52.870;13.660;2023-04-15T00:37:25;49.90;;;35.75;;
53411;SDS011;39307;52.870;13.660;2023-04-15T00:39:51;49.50;;;36.63;;
53411;SDS011;39307;52.870;13.660;2023-04-15T00:42:17;47.10;;;35.20;;
53411;SDS011;39307;52.870;13.660;2023-04-15T00:44:44;45.38;;;34.25;;
53411;SDS011;39307;52.870;13.660;2023-04-15T00:47:11;47.58;;;35.33;;
53411;SDS011;39307;52.870;13.660;2023-04-15T00:49:37;48.08;;;34.88;;
53411;SDS011;39307;52.870;13.660;2023-04-15T00:52:04;48.42;;;35.45;;
53411;SDS011;39307;52.870;13.660;2023-04-15T00:54:30;48.57;;;35.80;;
53411;SDS011;39307;52.870;13.660;2023-04-15T00:56:56;48.47;;;36.13;;
53411;SDS011;39307;52.870;13.660;2023-04-15T00:59:22;46.25;;;33.90;;
53411;SDS011;39307;52.870;13.660;2023-04-15T01:01:48;44.83;;;34.08;;
53411;SDS011;39307;52.870;13.660;2023-04-15T01:04:15;47.40;;;34.25;;
53411;SDS011;39307;52.870;13.660;2023-04-15T01:06:42;44.42;;;33.08;;
53411;SDS011;39307;52.870;13.660;2023-04-15T01:09:08;43.63;;;33.30;;
53411;SDS011;39307;52.870;13.660;2023-04-15T01:11:34;44.78;;;32.83;;
53411;SDS011;39307;52.870;13.660;2023-04-15T01:14:00;46.25;;;32.95;;
53411;SDS011;39307;52.870;13.660;2023-04-15T01:16:26;43.97;;;32.30;;
53411;SDS011;39307;52.870;13.660;2023-04-15T01:18:53;43.03;;;31.70;;
53411;SDS011;39307;52.870;13.660;2023-04-15T01:21:19;46.72;;;34.80;;
53411;SDS011;39307;52.870;13.660;2023-04-15T01:23:46;47.47;;;34.17;;
53411;SDS011;39307;52.870;13.660;2023-04-15T01:26:13;43.50;;;32.25;;
53411;SDS011;39307;52.870;13.660;2023-04-15T01:28:40;45.50;;;33.55;;
53411;SDS011;39307;52.870;13.660;2023-04-15T01:33:37;40.60;;;31.38;;
53411;SDS011;39307;52.870;13.660;2023-04-15T01:36:04;41.22;;;31.27;;
53411;SDS011;39307;52.870;13.660;2023-04-15T01:38:31;42.40;;;32.00;;
53411;SDS011;39307;52.870;13.660;2023-04-15T01:40:58;45.95;;;32.47;;
53411;SDS011;39307;52.870;13.660;2023-04-15T01:43:24;43.65;;;31.98;;
53411;SDS011;39307;52.870;13.660;2023-04-15T01:45:51;43.83;;;32.40;;
53411;SDS011;39307;52.870;13.660;2023-04-15T01:48:17;43.15;;;31.30;;
53411;SDS011;39307;52.870;13.660;2023-04-15T01:50:43;44.07;;;31.67;;
53411;SDS011;39307;52.870;13.660;2023-04-15T01:53:10;42.08;;;31.50;;
53411;SDS011;39307;52.870;13.660;2023-04-15T01:55:36;44.63;;;32.78;;
53411;SDS011;39307;52.870;13.660;2023-04-15T01:58:02;44.13;;;32.42;;
53411;SDS011;39307;52.870;13.660;2023-04-15T02:00:29;41.63;;;31.73;;
53411;SDS011;39307;52.870;13.660;2023-04-15T02:02:55;43.30;;;31.92;;
53411;SDS011;39307;52.870;13.660;2023-04-15T02:05:21;39.88;;;30.70;;
53411;SDS011;39307;52.870;13.660;2023-04-15T02:07:47;40.17;;;30.92;;
53411;SDS011;39307;52.870;13.660;2023-04-15T02:10:14;43.28;;;31.27;;
53411;SDS011;39307;52.870;13.660;2023-04-15T02:12:40;39.10;;;30.33;;
53411;SDS011;39307;52.870;13.660;2023-04-15T02:15:06;40.33;;;30.63;;
53411;SDS011;39307;52.870;13.660;2023-04-15T02:17:34;41.95;;;30.77;;
53411;SDS011;39307;52.870;13.660;2023-04-15T02:20:00;40.20;;;30.63;;
53411;SDS011;39307;52.870;13.660;2023-04-15T02:22:27;38.38;;;29.48;;
53411;SDS011;39307;52.870;13.660;2023-04-15T02:24:53;40.47;;;30.73;;
53411;SDS011;39307;52.870;13.660;2023-04-15T02:27:19;38.60;;;30.02;;
53411;SDS011;39307;52.870;13.660;2023-04-15T02:29:45;39.53;;;29.77;;
53411;SDS011;39307;52.870;13.660;2023-04-15T02:32:12;40.95;;;30.73;;
53411;SDS011;39307;52.870;13.660;2023-04-15T02:34:39;38.03;;;29.55;;
53411;SDS011;39307;52.870;13.660;2023-04-15T02:37:06;39.70;;;29.65;;
53411;SDS011;39307;52.870;13.660;2023-04-15T02:39:32;38.28;;;29.27;;
53411;SDS011;39307;52.870;13.660;2023-04-15T02:41:58;38.10;;;29.55;;
53411;SDS011;39307;52.870;13.660;2023-04-15T02:44:25;37.70;;;28.60;;
53411;SDS011;39307;52.870;13.660;2023-04-15T02:46:51;36.97;;;28.48;;
53411;SDS011;39307;52.870;13.660;2023-04-15T02:49:18;35.53;;;28.17;;
53411;SDS011;39307;52.870;13.660;2023-04-15T02:51:44;35.75;;;27.83;;
53411;SDS011;39307;52.870;13.660;2023-04-15T02:54:11;35.40;;;27.88;;
53411;SDS011;39307;52.870;13.660;2023-04-15T02:56:37;35.60;;;27.50;;
53411;SDS011;39307;52.870;13.660;2023-04-15T02:59:03;34.72;;;27.85;;
53411;SDS011;39307;52.870;13.660;2023-04-15T03:01:29;36.00;;;27.77;;
53411;SDS011;39307;52.870;13.660;2023-04-15T03:03:56;35.13;;;27.40;;
53411;SDS011;39307;52.870;13.660;2023-04-15T03:06:22;34.70;;;27.60;;
53411;SDS011;39307;52.870;13.660;2023-04-15T03:08:48;35.67;;;27.83;;
53411;SDS011;39307;52.870;13.660;2023-04-15T03:11:15;34.28;;;27.80;;
53411;SDS011;39307;52.870;13.660;2023-04-15T03:13:41;37.05;;;27.73;;
53411;SDS011;39307;52.870;13.660;2023-04-15T03:16:08;33.97;;;26.95;;
53411;SDS011;39307;52.870;13.660;2023-04-15T03:18:34;33.60;;;26.85;;
53411;SDS011;39307;52.870;13.660;2023-04-15T03:21:00;33.47;;;27.15;;
53411;SDS011;39307;52.870;13.660;2023-04-15T03:23:27;34.00;;;26.75;;
53411;SDS011;39307;52.870;13.660;2023-04-15T03:25:53;36.05;;;27.92;;
53411;SDS011;39307;52.870;13.660;2023-04-15T03:28:19;33.25;;;25.98;;
53411;SDS011;39307;52.870;13.660;2023-04-15T03:30:45;35.28;;;27.08;;
53411;SDS011;39307;52.870;13.660;2023-04-15T03:33:12;32.47;;;25.35;;
53411;SDS011;39307;52.870;13.660;2023-04-15T03:35:38;32.28;;;25.13;;
53411;SDS011;39307;52.870;13.660;2023-04-15T03:38:04;30.98;;;25.38;;
53411;SDS011;39307;52.870;13.660;2023-04-15T03:40:30;32.60;;;25.30;;
53411;SDS011;39307;52.870;13.660;2023-04-15T03:42:57;29.58;;;24.80;;
53411;SDS011;39307;52.870;13.660;2023-04-15T03:45:24;31.98;;;24.83;;
53411;SDS011;39307;52.870;13.660;2023-04-15T03:47:50;31.08;;;25.15;;
53411;SDS011;39307;52.870;13.660;2023-04-15T03:50:16;30.88;;;24.80;;
53411;SDS011;39307;52.870;13.660;2023-04-15T03:52:43;33.35;;;25.05;;
53411;SDS011;39307;52.870;13.660;2023-04-15T03:55:09;30.58;;;23.50;;
53411;SDS011;39307;52.870;13.660;2023-04-15T03:57:35;30.83;;;23.65;;
53411;SDS011;39307;52.870;13.660;2023-04-15T04:00:01;28.73;;;23.33;;
53411;SDS011;39307;52.870;13.660;2023-04-15T04:02:29;28.63;;;23.63;;
53411;SDS011;39307;52.870;13.660;2023-04-15T04:04:56;28.90;;;23.10;;
53411;SDS011;39307;52.870;13.660;2023-04-15T04:07:22;25.92;;;22.02;;
53411;SDS011;39307;52.870;13.660;2023-04-15T04:09:49;28.15;;;22.05;;
53411;SDS011;39307;52.870;13.660;2023-04-15T04:12:15;27.07;;;21.43;;
53411;SDS011;39307;52.870;13.660;2023-04-15T04:14:41;27.73;;;21.80;;
53411;SDS011;39307;52.870;13.660;2023-04-15T04:17:07;26.63;;;22.05;;
53411;SDS011;39307;52.870;13.660;2023-04-15T04:19:34;27.05;;;21.38;;
53411;SDS011;39307;52.870;13.660;2023-04-15T04:22:00;25.58;;;21.55;;
53411;SDS011;39307;52.870;13.660;2023-04-15T04:24:26;25.80;;;21.35;;
53411;SDS011;39307;52.870;13.660;2023-04-15T04:26:52;24.83;;;19.90;;
53411;SDS011;39307;52.870;13.660;2023-04-15T04:29:19;22.92;;;19.17;;
53411;SDS011;39307;52.870;13.660;2023-04-15T04:31:45;24.90;;;19.65;;
53411;SDS011;39307;52.870;13.660;2023-04-15T04:34:11;25.60;;;20.08;;
53411;SDS011;39307;52.870;13.660;2023-04-15T04:36:37;24.60;;;19.25;;
53411;SDS011;39307;52.870;13.660;2023-04-15T04:39:03;23.35;;;18.67;;
53411;SDS011;39307;52.870;13.660;2023-04-15T04:41:30;22.80;;;18.20;;
53411;SDS011;39307;52.870;13.660;2023-04-15T04:43:56;21.87;;;18.57;;
53411;SDS011;39307;52.870;13.660;2023-04-15T04:46:22;21.38;;;17.63;;
53411;SDS011;39307;52.870;13.660;2023-04-15T04:48:49;24.50;;;18.58;;
53411;SDS011;39307;52.870;13.660;2023-04-15T04:51:16;22.50;;;18.20;;
53411;SDS011;39307;52.870;13.660;2023-04-15T04:53:44;25.25;;;18.50;;
53411;SDS011;39307;52.870;13.660;2023-04-15T04:56:10;22.70;;;18.23;;
53411;SDS011;39307;52.870;13.660;2023-04-15T04:58:36;20.80;;;17.83;;
53411;SDS011;39307;52.870;13.660;2023-04-15T05:01:02;21.80;;;18.38;;
53411;SDS011;39307;52.870;13.660;2023-04-15T05:03:28;22.20;;;17.60;;
53411;SDS011;39307;52.870;13.660;2023-04-15T05:05:55;20.58;;;16.90;;
53411;SDS011;39307;52.870;13.660;2023-04-15T05:08:22;21.98;;;17.33;;
53411;SDS011;39307;52.870;13.660;2023-04-15T05:10:48;21.83;;;17.40;;
53411;SDS011;39307;52.870;13.660;2023-04-15T05:13:14;21.45;;;16.30;;
53411;SDS011;39307;52.870;13.660;2023-04-15T05:15:41;21.95;;;16.65;;
53411;SDS011;39307;52.870;13.660;2023-04-15T05:18:07;21.50;;;16.55;;
53411;SDS011;39307;52.870;13.660;2023-04-15T05:20:33;21.77;;;16.83;;
53411;SDS011;39307;52.870;13.660;2023-04-15T05:22:59;19.30;;;15.68;;
53411;SDS011;39307;52.870;13.660;2023-04-15T05:25:26;21.42;;;16.05;;
53411;SDS011;39307;52.870;13.660;2023-04-15T05:27:52;20.40;;;15.80;;
53411;SDS011;39307;52.870;13.660;2023-04-15T05:30:18;20.50;;;15.68;;
53411;SDS011;39307;52.870;13.660;2023-04-15T05:32:44;19.52;;;16.27;;
53411;SDS011;39307;52.870;13.660;2023-04-15T05:35:11;17.30;;;14.90;;
53411;SDS011;39307;52.870;13.660;2023-04-15T05:37:37;18.65;;;15.40;;
53411;SDS011;39307;52.870;13.660;2023-04-15T05:40:03;20.55;;;15.82;;
53411;SDS011;39307;52.870;13.660;2023-04-15T05:42:29;19.92;;;15.60;;
53411;SDS011;39307;52.870;13.660;2023-04-15T05:44:56;20.40;;;15.73;;
53411;SDS011;39307;52.870;13.660;2023-04-15T05:47:22;19.45;;;15.18;;
53411;SDS011;39307;52.870;13.660;2023-04-15T05:49:48;19.35;;;15.70;;
53411;SDS011;39307;52.870;13.660;2023-04-15T05:52:14;18.95;;;15.80;;
53411;SDS011;39307;52.870;13.660;2023-04-15T05:54:40;18.45;;;15.00;;
53411;SDS011;39307;52.870;13.660;2023-04-15T05:57:06;19.52;;;15.18;;
53411;SDS011;39307;52.870;13.660;2023-04-15T05:59:33;18.52;;;15.10;;
53411;SDS011;39307;52.870;13.660;2023-04-15T06:01:59;18.80;;;15.30;;
53411;SDS011;39307;52.870;13.660;2023-04-15T06:04:28;18.55;;;15.00;;
53411;SDS011;39307;52.870;13.660;2023-04-15T06:06:54;18.03;;;14.53;;
53411;SDS011;39307;52.870;13.660;2023-04-15T06:09:20;20.13;;;15.93;;
53411;SDS011;39307;52.870;13.660;2023-04-15T06:11:46;17.95;;;14.48;;
53411;SDS011;39307;52.870;13.660;2023-04-15T06:14:13;17.63;;;14.82;;
53411;SDS011;39307;52.870;13.660;2023-04-15T06:16:39;18.77;;;15.07;;
53411;SDS011;39307;52.870;13.660;2023-04-15T06:19:05;16.80;;;14.60;;
53411;SDS011;39307;52.870;13.660;2023-04-15T06:21:31;17.60;;;15.05;;
53411;SDS011;39307;52.870;13.660;2023-04-15T06:23:58;18.35;;;14.95;;
53411;SDS011;39307;52.870;13.660;2023-04-15T06:26:24;18.42;;;14.73;;
53411;SDS011;39307;52.870;13.660;2023-04-15T06:28:50;20.77;;;14.90;;
53411;SDS011;39307;52.870;13.660;2023-04-15T06:31:16;18.60;;;14.73;;
53411;SDS011;39307;52.870;13.660;2023-04-15T06:33:43;19.40;;;15.43;;
53411;SDS011;39307;52.870;13.660;2023-04-15T06:36:09;17.70;;;14.95;;
53411;SDS011;39307;52.870;13.660;2023-04-15T06:38:35;17.30;;;14.25;;
53411;SDS011;39307;52.870;13.660;2023-04-15T06:41:02;17.70;;;15.00;;
53411;SDS011;39307;52.870;13.660;2023-04-15T06:43:28;16.73;;;13.93;;
53411;SDS011;39307;52.870;13.660;2023-04-15T06:45:55;17.10;;;13.73;;
53411;SDS011;39307;52.870;13.660;2023-04-15T06:48:21;18.52;;;14.57;;
53411;SDS011;39307;52.870;13.660;2023-04-15T06:50:48;18.13;;;14.27;;
53411;SDS011;39307;52.870;13.660;2023-04-15T06:53:15;17.93;;;14.43;;
53411;SDS011;39307;52.870;13.660;2023-04-15T06:55:41;16.73;;;14.02;;
53411;SDS011;39307;52.870;13.660;2023-04-15T06:58:07;16.88;;;14.02;;
53411;SDS011;39307;52.870;13.660;2023-04-15T07:00:33;18.17;;;14.55;;
53411;SDS011;39307;52.870;13.660;2023-04-15T07:02:59;17.27;;;14.73;;
53411;SDS011;39307;52.870;13.660;2023-04-15T07:05:26;16.88;;;14.75;;
53411;SDS011;39307;52.870;13.660;2023-04-15T07:07:52;18.83;;;14.45;;
53411;SDS011;39307;52.870;13.660;2023-04-15T07:10:18;16.40;;;14.00;;
53411;SDS011;39307;52.870;13.660;2023-04-15T07:12:44;18.43;;;14.77;;
53411;SDS011;39307;52.870;13.660;2023-04-15T07:15:11;21.10;;;14.40;;
53411;SDS011;39307;52.870;13.660;2023-04-15T07:17:37;16.08;;;13.38;;
53411;SDS011;39307;52.870;13.660;2023-04-15T07:20:03;18.40;;;14.15;;
53411;SDS011;39307;52.870;13.660;2023-04-15T07:22:29;16.48;;;13.98;;
53411;SDS011;39307;52.870;13.660;2023-04-15T07:24:56;18.35;;;14.27;;
53411;SDS011;39307;52.870;13.660;2023-04-15T07:27:22;16.47;;;13.20;;
53411;SDS011;39307;52.870;13.660;2023-04-15T07:29:48;17.35;;;14.25;;
53411;SDS011;39307;52.870;13.660;2023-04-15T07:32:14;16.85;;;14.25;;
53411;SDS011;39307;52.870;13.660;2023-04-15T07:34:40;17.15;;;14.13;;
53411;SDS011;39307;52.870;13.660;2023-04-15T07:37:06;16.35;;;13.55;;
53411;SDS011;39307;52.870;13.660;2023-04-15T07:39:33;16.95;;;14.00;;
53411;SDS011;39307;52.870;13.660;2023-04-15T07:41:59;17.27;;;13.85;;
53411;SDS011;39307;52.870;13.660;2023-04-15T07:44:26;18.70;;;14.10;;
53411;SDS011;39307;52.870;13.660;2023-04-15T07:46:52;16.02;;;13.80;;
53411;SDS011;39307;52.870;13.660;2023-04-15T07:49:18;20.38;;;13.98;;
53411;SDS011;39307;52.870;13.660;2023-04-15T07:51:44;16.40;;;12.75;;
53411;SDS011;39307;52.870;13.660;2023-04-15T07:54:10;16.17;;;13.63;;
53411;SDS011;39307;52.870;13.660;2023-04-15T07:56:37;16.80;;;12.90;;
53411;SDS011;39307;52.870;13.660;2023-04-15T07:59:03;16.73;;;13.87;;
53411;SDS011;39307;52.870;13.660;2023-04-15T08:01:29;15.77;;;13.65;;
53411;SDS011;39307;52.870;13.660;2023-04-15T08:03:55;16.35;;;13.38;;
53411;SDS011;39307;52.870;13.660;2023-04-15T08:06:22;16.70;;;13.27;;
53411;SDS011;39307;52.870;13.660;2023-04-15T08:08:48;16.02;;;13.55;;
53411;SDS011;39307;52.870;13.660;2023-04-15T08:11:14;16.03;;;13.13;;
53411;SDS011;39307;52.870;13.660;2023-04-15T08:13:40;17.13;;;14.35;;
53411;SDS011;39307;52.870;13.660;2023-04-15T08:18:59;16.05;;;13.48;;
53411;SDS011;39307;52.870;13.660;2023-04-15T08:21:25;16.02;;;13.10;;
53411;SDS011;39307;52.870;13.660;2023-04-15T08:23:52;17.00;;;13.85;;
53411;SDS011;39307;52.870;13.660;2023-04-15T08:26:18;16.23;;;13.75;;
53411;SDS011;39307;52.870;13.660;2023-04-15T08:28:45;18.15;;;13.90;;
53411;SDS011;39307;52.870;13.660;2023-04-15T08:31:13;17.67;;;14.03;;
53411;SDS011;39307;52.870;13.660;2023-04-15T08:33:40;15.75;;;13.95;;
53411;SDS011;39307;52.870;13.660;2023-04-15T08:36:06;17.67;;;13.98;;
53411;SDS011;39307;52.870;13.660;2023-04-15T08:38:33;17.55;;;13.68;;
53411;SDS011;39307;52.870;13.660;2023-04-15T08:40:59;17.35;;;13.80;;
53411;SDS011;39307;52.870;13.660;2023-04-15T08:43:33;15.40;;;13.32;;
53411;SDS011;39307;52.870;13.660;2023-04-15T08:46:02;15.97;;;13.03;;
53411;SDS011;39307;52.870;13.660;2023-04-15T08:48:31;18.07;;;14.10;;
53411;SDS011;39307;52.870;13.660;2023-04-15T08:50:58;18.42;;;13.60;;
53411;SDS011;39307;52.870;13.660;2023-04-15T08:53:25;17.38;;;14.07;;
53411;SDS011;39307;52.870;13.660;2023-04-15T08:55:53;15.68;;;12.98;;
53411;SDS011;39307;52.870;13.660;2023-04-15T08:58:20;16.95;;;13.57;;
53411;SDS011;39307;52.870;13.660;2023-04-15T09:00:47;15.10;;;13.23;;
53411;SDS011;39307;52.870;13.660;2023-04-15T09:03:13;15.80;;;12.35;;
53411;SDS011;39307;52.870;13.660;2023-04-15T09:05:40;16.38;;;13.70;;
53411;SDS011;39307;52.870;13.660;2023-04-15T09:08:06;16.73;;;13.18;;
53411;SDS011;39307;52.870;13.660;2023-04-15T09:10:33;16.30;;;13.73;;
53411;SDS011;39307;52.870;13.660;2023-04-15T09:12:59;15.63;;;13.15;;
53411;SDS011;39307;52.870;13.660;2023-04-15T09:15:26;16.65;;;13.13;;
53411;SDS011;39307;52.870;13.660;2023-04-15T09:17:53;16.95;;;13.07;;
53411;SDS011;39307;52.870;13.660;2023-04-15T09:20:19;16.10;;;13.07;;
53411;SDS011;39307;52.870;13.660;2023-04-15T09:22:46;14.73;;;12.98;;
53411;SDS011;39307;52.870;13.660;2023-04-15T09:27:49;17.10;;;13.00;;
53411;SDS011;39307;52.870;13.660;2023-04-15T09:30:16;15.63;;;13.13;;
53411;SDS011;39307;52.870;13.660;2023-04-15T09:35:20;15.95;;;13.65;;
53411;SDS011;39307;52.870;13.660;2023-04-15T09:37:50;15.90;;;13.55;;
53411;SDS011;39307;52.870;13.660;2023-04-15T09:40:33;18.30;;;13.85;;
53411;SDS011;39307;52.870;13.660;2023-04-15T09:43:01;16.17;;;13.27;;
53411;SDS011;39307;52.870;13.660;2023-04-15T09:45:31;17.40;;;13.38;;
53411;SDS011;39307;52.870;13.660;2023-04-15T09:47:59;15.73;;;13.37;;
53411;SDS011;39307;52.870;13.660;2023-04-15T09:50:41;16.38;;;13.15;;
53411;SDS011;39307;52.870;13.660;2023-04-15T09:53:09;17.00;;;13.52;;
53411;SDS011;39307;52.870;13.660;2023-04-15T09:55:36;15.48;;;13.27;;
53411;SDS011;39307;52.870;13.660;2023-04-15T09:58:07;16.13;;;13.43;;
53411;SDS011;39307;52.870;13.660;2023-04-15T10:00:42;17.95;;;13.85;;
53411;SDS011;39307;52.870;13.660;2023-04-15T10:03:09;15.33;;;12.77;;
53411;SDS011;39307;52.870;13.660;2023-04-15T10:05:36;16.87;;;13.23;;
53411;SDS011;39307;52.870;13.660;2023-04-15T10:08:02;17.80;;;13.82;;
53411;SDS011;39307;52.870;13.660;2023-04-15T10:10:29;16.58;;;13.32;;
53411;SDS011;39307;52.870;13.660;2023-04-15T10:12:57;17.67;;;13.10;;
53411;SDS011;39307;52.870;13.660;2023-04-15T10:15:23;15.45;;;13.07;;
53411;SDS011;39307;52.870;13.660;2023-04-15T10:17:51;17.33;;;13.15;;
53411;SDS011;39307;52.870;13.660;2023-04-15T10:20:19;17.20;;;13.05;;
53411;SDS011;39307;52.870;13.660;2023-04-15T10:22:47;15.88;;;13.18;;
53411;SDS011;39307;52.870;13.660;2023-04-15T10:25:14;16.25;;;12.93;;
53411;SDS011;39307;52.870;13.660;2023-04-15T10:27:40;17.48;;;13.15;;
53411;SDS011;39307;52.870;13.660;2023-04-15T10:30:07;17.05;;;13.65;;
53411;SDS011;39307;52.870;13.660;2023-04-15T10:32:34;18.42;;;13.77;;
53411;SDS011;39307;52.870;13.660;2023-04-15T10:35:00;17.00;;;13.52;;
53411;SDS011;39307;52.870;13.660;2023-04-15T10:37:34;18.63;;;14.02;;
53411;SDS011;39307;52.870;13.660;2023-04-15T10:40:44;16.35;;;13.35;;
53411;SDS011;39307;52.870;13.660;2023-04-15T10:42:54;15.80;;;12.53;;
53411;SDS011;39307;52.870;13.660;2023-04-15T10:45:20;17.63;;;13.87;;
53411;SDS011;39307;52.870;13.660;2023-04-15T10:47:56;17.15;;;13.95;;
53411;SDS011;39307;52.870;13.660;2023-04-15T10:50:26;17.10;;;13.60;;
53411;SDS011;39307;52.870;13.660;2023-04-15T10:52:53;18.48;;;14.05;;
53411;SDS011;39307;52.870;13.660;2023-04-15T10:55:26;17.33;;;13.48;;
53411;SDS011;39307;52.870;13.660;2023-04-15T10:57:58;17.88;;;15.02;;
53411;SDS011;39307;52.870;13.660;2023-04-15T11:00:29;17.90;;;14.33;;
53411;SDS011;39307;52.870;13.660;2023-04-15T11:02:58;16.98;;;14.15;;
53411;SDS011;39307;52.870;13.660;2023-04-15T11:05:50;15.50;;;13.80;;
53411;SDS011;39307;52.870;13.660;2023-04-15T11:08:17;18.02;;;14.43;;
53411;SDS011;39307;52.870;13.660;2023-04-15T11:15:42;18.00;;;14.40;;
53411;SDS011;39307;52.870;13.660;2023-04-15T11:20:43;16.25;;;13.70;;
53411;SDS011;39307;52.870;13.660;2023-04-15T11:23:11;18.40;;;13.88;;
53411;SDS011;39307;52.870;13.660;2023-04-15T11:25:39;20.60;;;13.55;;
53411;SDS011;39307;52.870;13.660;2023-04-15T11:28:05;16.38;;;13.18;;
53411;SDS011;39307;52.870;13.660;2023-04-15T11:30:32;17.10;;;14.00;;
53411;SDS011;39307;52.870;13.660;2023-04-15T11:33:01;16.05;;;13.55;;
53411;SDS011;39307;52.870;13.660;2023-04-15T11:35:31;19.23;;;13.80;;
53411;SDS011;39307;52.870;13.660;2023-04-15T11:38:01;19.08;;;14.13;;
53411;SDS011;39307;52.870;13.660;2023-04-15T11:40:30;17.52;;;14.27;;
53411;SDS011;39307;52.870;13.660;2023-04-15T11:43:09;18.83;;;15.15;;
53411;SDS011;39307;52.870;13.660;2023-04-15T11:45:37;17.05;;;14.30;;
53411;SDS011;39307;52.870;13.660;2023-04-15T11:48:33;17.05;;;13.73;;
53411;SDS011;39307;52.870;13.660;2023-04-15T11:51:01;17.52;;;14.15;;
53411;SDS011;39307;52.870;13.660;2023-04-15T11:53:40;16.80;;;14.02;;
53411;SDS011;39307;52.870;13.660;2023-04-15T11:56:09;16.00;;;14.17;;
53411;SDS011;39307;52.870;13.660;2023-04-15T11:58:41;19.00;;;15.23;;
53411;SDS011;39307;52.870;13.660;2023-04-15T12:01:08;16.27;;;14.55;;
53411;SDS011;39307;52.870;13.660;2023-04-15T12:03:47;17.13;;;14.25;;
53411;SDS011;39307;52.870;13.660;2023-04-15T12:06:14;17.33;;;14.30;;
53411;SDS011;39307;52.870;13.660;2023-04-15T12:11:30;16.65;;;14.20;;
53411;SDS011;39307;52.870;13.660;2023-04-15T12:16:58;16.50;;;14.18;;
53411;SDS011;39307;52.870;13.660;2023-04-15T12:19:29;16.85;;;14.10;;
53411;SDS011;39307;52.870;13.660;2023-04-15T12:22:09;17.00;;;13.85;;
53411;SDS011;39307;52.870;13.660;2023-04-15T12:24:37;16.77;;;13.85;;
53411;SDS011;39307;52.870;13.660;2023-04-15T12:27:04;16.40;;;14.10;;
53411;SDS011;39307;52.870;13.660;2023-04-15T12:29:32;16.07;;;14.00;;
53411;SDS011;39307;52.870;13.660;2023-04-15T12:34:34;16.67;;;14.73;;
53411;SDS011;39307;52.870;13.660;2023-04-15T12:37:14;17.55;;;15.30;;
53411;SDS011;39307;52.870;13.660;2023-04-15T12:39:41;17.08;;;14.95;;
53411;SDS011;39307;52.870;13.660;2023-04-15T12:42:09;17.67;;;15.77;;
53411;SDS011;39307;52.870;13.660;2023-04-15T12:44:36;19.40;;;15.98;;
53411;SDS011;39307;52.870;13.660;2023-04-15T12:47:03;17.95;;;15.52;;
53411;SDS011;39307;52.870;13.660;2023-04-15T12:49:30;16.98;;;14.90;;
53411;SDS011;39307;52.870;13.660;2023-04-15T12:51:57;16.83;;;14.83;;
53411;SDS011;39307;52.870;13.660;2023-04-15T12:54:23;16.52;;;14.82;;
53411;SDS011;39307;52.870;13.660;2023-04-15T12:56:50;16.77;;;14.98;;
53411;SDS011;39307;52.870;13.660;2023-04-15T12:59:16;20.42;;;15.32;;
53411;SDS011;39307;52.870;13.660;2023-04-15T13:01:43;16.83;;;14.53;;
53411;SDS011;39307;52.870;13.660;2023-04-15T13:04:11;17.02;;;14.55;;
53411;SDS011;39307;52.870;13.660;2023-04-15T13:06:37;18.42;;;14.70;;
53411;SDS011;39307;52.870;13.660;2023-04-15T13:09:03;15.98;;;14.30;;
53411;SDS011;39307;52.870;13.660;2023-04-15T13:11:30;18.33;;;13.50;;
53411;SDS011;39307;52.870;13.660;2023-04-15T13:13:56;16.57;;;14.37;;
53411;SDS011;39307;52.870;13.660;2023-04-15T13:16:23;17.33;;;14.50;;
53411;SDS011;39307;52.870;13.660;2023-04-15T13:18:49;17.33;;;14.60;;
53411;SDS011;39307;52.870;13.660;2023-04-15T13:21:15;15.75;;;13.90;;
53411;SDS011;39307;52.870;13.660;2023-04-15T13:23:43;16.38;;;13.73;;
53411;SDS011;39307;52.870;13.660;2023-04-15T13:26:09;16.73;;;14.45;;
53411;SDS011;39307;52.870;13.660;2023-04-15T13:28:35;15.43;;;13.70;;
53411;SDS011;39307;52.870;13.660;2023-04-15T13:31:02;16.03;;;14.33;;
53411;SDS011;39307;52.870;13.660;2023-04-15T13:33:28;15.63;;;13.75;;
53411;SDS011;39307;52.870;13.660;2023-04-15T13:35:55;15.38;;;13.65;;
53411;SDS011;39307;52.870;13.660;2023-04-15T13:38:21;15.10;;;13.53;;
53411;SDS011;39307;52.870;13.660;2023-04-15T13:40:48;15.10;;;13.50;;
53411;SDS011;39307;52.870;13.660;2023-04-15T13:43:15;15.95;;;14.23;;
53411;SDS011;39307;52.870;13.660;2023-04-15T13:45:42;15.15;;;13.55;;
53411;SDS011;39307;52.870;13.660;2023-04-15T13:48:09;15.93;;;13.73;;
53411;SDS011;39307;52.870;13.660;2023-04-15T13:50:35;16.60;;;14.55;;
53411;SDS011;39307;52.870;13.660;2023-04-15T13:53:02;15.98;;;14.27;;
53411;SDS011;39307;52.870;13.660;2023-04-15T13:55:28;15.25;;;13.65;;
53411;SDS011;39307;52.870;13.660;2023-04-15T13:57:55;17.48;;;14.88;;
53411;SDS011;39307;52.870;13.660;2023-04-15T14:00:21;16.58;;;14.10;;
53411;SDS011;39307;52.870;13.660;2023-04-15T14:02:47;16.00;;;13.88;;
53411;SDS011;39307;52.870;13.660;2023-04-15T14:05:13;15.80;;;13.20;;
53411;SDS011;39307;52.870;13.660;2023-04-15T14:07:40;15.15;;;13.55;;
53411;SDS011;39307;52.870;13.660;2023-04-15T14:10:06;15.65;;;13.95;;
53411;SDS011;39307;52.870;13.660;2023-04-15T14:12:32;15.77;;;14.07;;
53411;SDS011;39307;52.870;13.660;2023-04-15T14:14:59;16.83;;;12.95;;
53411;SDS011;39307;52.870;13.660;2023-04-15T14:17:25;15.68;;;14.00;;
53411;SDS011;39307;52.870;13.660;2023-04-15T14:19:51;16.67;;;13.65;;
53411;SDS011;39307;52.870;13.660;2023-04-15T14:22:18;14.70;;;13.13;;
53411;SDS011;39307;52.870;13.660;2023-04-15T14:24:44;16.10;;;14.15;;
53411;SDS011;39307;52.870;13.660;2023-04-15T14:27:10;16.45;;;14.48;;
53411;SDS011;39307;52.870;13.660;2023-04-15T14:29:36;15.73;;;14.13;;
53411;SDS011;39307;52.870;13.660;2023-04-15T14:32:03;15.80;;;13.68;;
53411;SDS011;39307;52.870;13.660;2023-04-15T14:34:29;16.05;;;13.73;;